createdAt,value
2022-10-20T00:01:23.165Z,7.70
2022-10-20T00:03:51.565Z,7.70
2022-10-20T00:06:26.639Z,7.70
2022-10-20T00:08:55.257Z,7.70
2022-10-20T00:11:23.580Z,7.70
2022-10-20T00:13:52.602Z,7.70
2022-10-20T00:16:20.621Z,7.80
2022-10-20T00:18:47.697Z,7.70
2022-10-20T00:21:23.636Z,7.70
2022-10-20T00:23:50.641Z,7.70
2022-10-20T00:26:23.311Z,7.70
2022-10-20T00:28:51.581Z,7.70
2022-10-20T00:31:21.479Z,7.70
2022-10-20T00:33:51.612Z,7.70
2022-10-20T00:36:20.829Z,7.70
2022-10-20T00:38:47.690Z,7.70
2022-10-20T00:41:16.843Z,7.70
2022-10-20T00:43:49.705Z,7.70
2022-10-20T00:46:21.823Z,7.60
2022-10-20T00:48:55.372Z,7.60
2022-10-20T00:51:26.518Z,7.60
2022-10-20T00:54:00.178Z,7.50
2022-10-20T00:56:27.265Z,7.50
2022-10-20T00:58:54.753Z,7.50
2022-10-20T01:01:21.879Z,7.50
2022-10-20T01:03:51.461Z,7.50
2022-10-20T01:06:22.273Z,7.50
2022-10-20T01:08:51.599Z,7.50
2022-10-20T01:11:23.938Z,7.50
2022-10-20T01:14:31.763Z,7.50
2022-10-20T01:17:42.064Z,7.50
2022-10-20T01:21:04.427Z,7.50
2022-10-20T01:24:35.968Z,7.50
2022-10-20T01:27:29.180Z,7.50
2022-10-20T01:30:21.214Z,7.50
2022-10-20T01:33:20.949Z,7.50
2022-10-20T01:36:11.159Z,7.50
2022-10-20T01:38:50.520Z,7.50
2022-10-20T01:41:34.322Z,7.40
2022-10-20T01:44:07.841Z,7.40
2022-10-20T01:46:37.576Z,7.40
2022-10-20T01:49:06.591Z,7.40
2022-10-20T01:51:33.622Z,7.40
2022-10-20T01:54:00.718Z,7.40
2022-10-20T01:56:39.082Z,7.40
2022-10-20T01:59:34.191Z,7.40
2022-10-20T02:02:33.167Z,7.40
2022-10-20T02:05:28.372Z,7.40
2022-10-20T02:08:06.799Z,7.30
2022-10-20T02:10:46.829Z,7.40
2022-10-20T02:13:15.010Z,7.30
2022-10-20T02:15:47.259Z,7.30
2022-10-20T02:18:18.090Z,7.30
2022-10-20T02:20:50.107Z,7.20
2022-10-20T02:23:17.969Z,7.20
2022-10-20T02:25:49.445Z,7.10
2022-10-20T02:28:19.666Z,7.10
2022-10-20T02:30:47.726Z,7.10
2022-10-20T02:33:16.683Z,7.00
2022-10-20T02:35:51.541Z,7.00
2022-10-20T02:38:18.452Z,7.00
2022-10-20T02:40:45.523Z,7.00
2022-10-20T02:43:12.476Z,7.00
2022-10-20T02:45:39.490Z,7.00
2022-10-20T02:48:07.957Z,7.00
2022-10-20T02:50:35.569Z,7.00
2022-10-20T02:53:03.191Z,7.00
2022-10-20T02:55:30.138Z,7.00
2022-10-20T02:57:57.765Z,7.00
2022-10-20T03:00:24.853Z,7.00
2022-10-20T03:02:52.217Z,7.00
2022-10-20T03:05:19.130Z,7.00
2022-10-20T03:07:45.983Z,7.00
2022-10-20T03:10:12.901Z,6.90
2022-10-20T03:12:39.779Z,6.90
2022-10-20T03:15:07.182Z,6.90
2022-10-20T03:17:34.728Z,6.90
2022-10-20T03:20:02.702Z,6.90
2022-10-20T03:25:01.479Z,6.80
2022-10-20T03:27:28.529Z,6.80
2022-10-20T03:29:55.431Z,6.90
2022-10-20T03:32:22.384Z,6.90
2022-10-20T03:34:49.187Z,6.90
2022-10-20T03:37:16.020Z,6.90
2022-10-20T03:39:42.905Z,6.90
2022-10-20T03:42:09.768Z,6.90
2022-10-20T03:44:36.646Z,6.90
2022-10-20T03:47:03.571Z,7.00
2022-10-20T03:49:31.659Z,7.00
2022-10-20T03:51:58.957Z,7.00
2022-10-20T03:54:25.907Z,7.00
2022-10-20T03:56:52.823Z,7.00
2022-10-20T03:59:19.703Z,7.00
2022-10-20T04:01:46.946Z,7.00
2022-10-20T04:04:14.202Z,7.00
2022-10-20T04:06:41.127Z,7.00
2022-10-20T04:09:08.002Z,7.00
2022-10-20T04:11:34.951Z,6.90
2022-10-20T04:14:01.878Z,6.90
2022-10-20T04:16:28.819Z,6.90
2022-10-20T04:18:56.448Z,7.00
2022-10-20T04:21:23.442Z,7.00
2022-10-20T04:23:50.320Z,7.00
2022-10-20T04:26:17.473Z,7.00
2022-10-20T04:28:44.502Z,7.10
2022-10-20T04:31:11.384Z,7.00
2022-10-20T04:33:38.298Z,7.00
2022-10-20T04:36:08.547Z,7.00
2022-10-20T04:38:36.146Z,7.00
2022-10-20T04:41:04.850Z,7.10
2022-10-20T04:43:34.508Z,7.00
2022-10-20T04:46:08.369Z,7.00
2022-10-20T04:48:37.050Z,7.00
2022-10-20T04:51:09.153Z,7.10
2022-10-20T04:53:36.410Z,7.10
2022-10-20T04:56:05.203Z,7.10
2022-10-20T04:58:32.720Z,7.10
2022-10-20T05:01:08.634Z,7.20
2022-10-20T05:03:36.472Z,7.30
2022-10-20T05:06:15.814Z,7.30
2022-10-20T05:08:44.392Z,7.20
2022-10-20T05:11:11.408Z,7.20
2022-10-20T05:13:38.876Z,7.20
2022-10-20T05:16:06.374Z,7.20
2022-10-20T05:18:34.081Z,7.20
2022-10-20T05:21:25.487Z,7.10
2022-10-20T05:23:57.579Z,7.20
2022-10-20T05:26:25.393Z,7.20
2022-10-20T05:28:53.256Z,7.20
2022-10-20T05:31:22.271Z,7.20
2022-10-20T05:33:52.045Z,7.20
2022-10-20T05:36:21.942Z,7.10
2022-10-20T05:38:50.221Z,7.10
2022-10-20T05:41:19.211Z,7.10
2022-10-20T05:43:54.016Z,7.10
2022-10-20T05:46:21.074Z,7.10
2022-10-20T05:48:47.987Z,7.10
2022-10-20T05:51:16.110Z,7.10
2022-10-20T05:53:43.846Z,7.10
2022-10-20T05:56:14.725Z,7.10
2022-10-20T05:58:43.651Z,7.10
2022-10-20T06:01:18.066Z,7.10
2022-10-20T06:03:52.959Z,7.10
2022-10-20T06:06:22.090Z,7.10
2022-10-20T06:08:50.952Z,7.10
2022-10-20T06:11:19.344Z,7.20
2022-10-20T06:13:48.634Z,7.20
2022-10-20T06:16:21.575Z,7.20
2022-10-20T06:18:49.073Z,7.30
2022-10-20T06:21:27.629Z,7.20
2022-10-20T06:23:54.624Z,7.30
2022-10-20T06:26:29.570Z,7.40
2022-10-20T06:29:03.547Z,7.60
2022-10-20T06:31:39.771Z,7.70
2022-10-20T06:34:09.235Z,7.60
2022-10-20T06:36:37.448Z,7.60
2022-10-20T06:39:05.867Z,7.60
2022-10-20T06:41:33.443Z,7.60
2022-10-20T06:44:00.591Z,7.60
2022-10-20T06:46:30.144Z,7.60
2022-10-20T06:48:59.540Z,7.60
2022-10-20T06:51:26.629Z,7.60
2022-10-20T06:53:53.710Z,7.60
2022-10-20T06:56:23.830Z,7.70
2022-10-20T06:58:53.193Z,7.70
2022-10-20T07:01:33.519Z,7.70
2022-10-20T07:04:03.695Z,7.80
2022-10-20T07:06:37.388Z,7.80
2022-10-20T07:09:07.263Z,7.90
2022-10-20T07:11:35.002Z,7.90
2022-10-20T07:14:02.858Z,8.00
2022-10-20T07:16:32.838Z,8.00
2022-10-20T07:19:01.359Z,8.10
2022-10-20T07:21:32.664Z,8.20
2022-10-20T07:24:05.885Z,8.20
2022-10-20T07:26:35.302Z,8.30
2022-10-20T07:29:04.121Z,8.40
2022-10-20T07:31:40.127Z,8.50
2022-10-20T07:34:27.253Z,8.50
2022-10-20T07:36:56.535Z,8.60
2022-10-20T07:39:27.218Z,8.70
2022-10-20T07:41:54.336Z,8.80
2022-10-20T07:44:21.671Z,8.90
2022-10-20T07:46:48.768Z,9.00
2022-10-20T07:52:02.687Z,9.20
2022-10-20T07:54:29.770Z,9.30
2022-10-20T07:56:56.809Z,9.40
2022-10-20T07:59:24.551Z,9.40
2022-10-20T08:01:54.765Z,9.50
2022-10-20T08:04:25.773Z,9.50
2022-10-20T08:06:52.749Z,9.60
2022-10-20T08:09:19.641Z,9.60
2022-10-20T08:11:46.602Z,9.70
2022-10-20T08:14:13.596Z,9.80
2022-10-20T08:16:41.244Z,9.90
2022-10-20T08:19:14.333Z,10.00
2022-10-20T08:21:43.581Z,10.10
2022-10-20T08:24:10.674Z,10.20
2022-10-20T08:26:37.539Z,10.40
2022-10-20T08:29:04.871Z,10.40
2022-10-20T08:31:31.813Z,10.50
2022-10-20T08:33:59.886Z,10.70
2022-10-20T08:36:30.285Z,10.90
2022-10-20T08:39:03.449Z,11.10
2022-10-20T08:42:02.577Z,11.50
2022-10-20T08:44:34.522Z,11.70
2022-10-20T08:47:14.109Z,11.60
2022-10-20T08:49:41.205Z,11.80
2022-10-20T08:52:15.139Z,11.60
2022-10-20T08:54:42.274Z,11.70
2022-10-20T08:57:24.585Z,11.90
2022-10-20T08:59:53.786Z,12.30
2022-10-20T09:02:21.584Z,12.50
2022-10-20T09:04:56.278Z,12.50
2022-10-20T09:07:34.340Z,12.80
2022-10-20T09:10:38.644Z,13.20
2022-10-20T09:13:32.728Z,13.40
2022-10-20T09:16:04.812Z,13.30
2022-10-20T09:18:33.552Z,13.30
2022-10-20T09:21:15.311Z,13.40
2022-10-20T09:23:45.265Z,13.80
2022-10-20T09:26:44.984Z,14.20
2022-10-20T09:29:17.486Z,14.40
2022-10-20T09:31:53.973Z,14.50
2022-10-20T09:34:31.966Z,14.30
2022-10-20T09:37:11.788Z,14.10
2022-10-20T09:39:59.413Z,14.00
2022-10-20T09:42:32.434Z,14.30
2022-10-20T09:45:05.616Z,14.60
2022-10-20T09:47:34.465Z,14.50
2022-10-20T09:50:04.253Z,14.50
2022-10-20T09:52:35.767Z,14.60
2022-10-20T09:55:19.743Z,14.80
2022-10-20T09:57:50.017Z,14.90
2022-10-20T10:00:41.780Z,15.20
2022-10-20T10:03:23.261Z,15.40
2022-10-20T10:05:58.836Z,15.40
2022-10-20T10:08:29.787Z,15.40
2022-10-20T10:11:02.647Z,15.40
2022-10-20T10:13:32.161Z,15.50
2022-10-20T10:16:06.402Z,15.70
2022-10-20T10:18:34.520Z,15.70
2022-10-20T10:21:15.083Z,15.70
2022-10-20T10:24:02.236Z,15.60
2022-10-20T10:26:37.976Z,15.70
2022-10-20T10:29:05.011Z,15.70
2022-10-20T10:31:33.528Z,15.70
2022-10-20T10:34:32.995Z,15.80
2022-10-20T10:37:00.209Z,15.80
2022-10-20T10:39:29.224Z,15.80
2022-10-20T10:42:54.442Z,15.80
2022-10-20T10:45:56.647Z,15.80
2022-10-20T10:48:57.178Z,15.80
2022-10-20T10:51:48.204Z,15.80
2022-10-20T10:54:45.155Z,15.80
2022-10-20T10:57:31.361Z,15.70
2022-10-20T11:00:07.430Z,15.70
2022-10-20T11:02:59.017Z,15.60
2022-10-20T11:06:04.570Z,15.70
2022-10-20T11:09:12.066Z,15.80
2022-10-20T11:11:51.620Z,15.80
2022-10-20T11:15:07.119Z,15.90
2022-10-20T11:17:54.548Z,16.00
2022-10-20T11:21:14.192Z,16.10
2022-10-20T11:24:22.724Z,16.20
2022-10-20T11:26:54.967Z,16.40
2022-10-20T11:29:44.526Z,16.50
2022-10-20T11:32:31.470Z,16.60
2022-10-20T11:35:23.044Z,16.70
2022-10-20T11:38:06.366Z,16.70
2022-10-20T11:40:40.162Z,16.70
2022-10-20T11:43:39.534Z,16.60
2022-10-20T11:46:20.894Z,16.50
2022-10-20T11:48:51.788Z,16.50
2022-10-20T11:52:14.298Z,16.50
2022-10-20T11:55:05.606Z,16.50
2022-10-20T11:57:59.052Z,16.40
2022-10-20T12:01:06.318Z,16.30
2022-10-20T12:04:14.436Z,16.20
2022-10-20T12:06:57.652Z,16.10
2022-10-20T12:09:58.762Z,16.10
2022-10-20T12:13:12.959Z,16.10
2022-10-20T12:15:52.131Z,16.00
2022-10-20T12:18:27.886Z,16.00
2022-10-20T12:21:01.977Z,15.90
2022-10-20T12:24:24.486Z,15.90
2022-10-20T12:27:30.487Z,15.80
2022-10-20T12:30:38.726Z,15.80
2022-10-20T12:33:20.254Z,15.80
2022-10-20T12:36:34.191Z,15.80
2022-10-20T12:39:30.870Z,15.80
2022-10-20T12:42:02.772Z,15.90
2022-10-20T12:44:40.355Z,15.90
2022-10-20T12:47:09.099Z,16.00
2022-10-20T12:49:40.567Z,16.00
2022-10-20T12:52:17.411Z,16.00
2022-10-20T12:54:48.477Z,16.00
2022-10-20T12:57:38.455Z,16.00
2022-10-20T13:00:39.482Z,16.00
2022-10-20T13:03:36.408Z,16.00
2022-10-20T13:06:43.581Z,16.00
2022-10-20T13:09:23.014Z,16.00
2022-10-20T13:12:01.169Z,16.00
2022-10-20T13:14:50.997Z,16.00
2022-10-20T13:17:25.357Z,16.00
2022-10-20T13:20:01.961Z,16.00
2022-10-20T13:22:47.684Z,15.90
2022-10-20T13:25:18.720Z,15.90
2022-10-20T13:27:49.184Z,15.90
2022-10-20T13:30:22.636Z,15.90
2022-10-20T13:33:33.207Z,15.80
2022-10-20T13:36:38.072Z,15.70
2022-10-20T13:39:16.918Z,15.50
2022-10-20T13:42:17.121Z,15.50
2022-10-20T13:45:35.935Z,15.30
2022-10-20T13:48:43.657Z,15.20
2022-10-20T13:51:24.580Z,15.10
2022-10-20T13:53:55.936Z,14.90
2022-10-20T13:56:49.487Z,14.80
2022-10-20T14:02:14.175Z,14.50
2022-10-20T14:04:41.458Z,14.50
2022-10-20T14:07:13.488Z,14.40
2022-10-20T14:09:45.363Z,14.30
2022-10-20T14:12:26.745Z,14.30
2022-10-20T14:15:01.425Z,14.20
2022-10-20T14:17:29.172Z,14.10
2022-10-20T14:20:19.664Z,14.10
2022-10-20T14:22:47.435Z,14.00
2022-10-20T14:25:14.626Z,14.00
2022-10-20T14:27:41.676Z,14.00
2022-10-20T14:30:14.634Z,13.90
2022-10-20T14:32:43.263Z,13.90
2022-10-20T14:35:29.012Z,13.90
2022-10-20T14:38:14.843Z,13.90
2022-10-20T14:40:48.459Z,14.00
2022-10-20T14:43:19.501Z,14.00
2022-10-20T14:45:58.376Z,14.00
2022-10-20T14:48:49.217Z,14.00
2022-10-20T14:51:45.059Z,14.00
2022-10-20T14:54:28.107Z,14.10
2022-10-20T14:57:01.849Z,14.10
2022-10-20T14:59:31.209Z,14.10
2022-10-20T15:02:13.675Z,14.10
2022-10-20T15:04:42.574Z,14.20
2022-10-20T15:07:32.485Z,14.10
2022-10-20T15:10:14.377Z,14.10
2022-10-20T15:12:43.946Z,14.10
2022-10-20T15:15:23.972Z,14.00
2022-10-20T15:18:14.521Z,14.00
2022-10-20T15:20:43.763Z,14.00
2022-10-20T15:23:30.865Z,14.00
2022-10-20T15:26:04.677Z,14.00
2022-10-20T15:28:38.990Z,14.00
2022-10-20T15:31:22.486Z,14.00
2022-10-20T15:33:49.973Z,14.10
2022-10-20T15:36:22.382Z,14.10
2022-10-20T15:38:50.229Z,14.10
2022-10-20T15:41:23.221Z,14.00
2022-10-20T15:43:50.156Z,14.00
2022-10-20T15:46:18.383Z,14.00
2022-10-20T15:48:45.991Z,14.00
2022-10-20T15:51:18.705Z,13.90
2022-10-20T15:53:49.596Z,13.90
2022-10-20T15:56:17.781Z,13.90
2022-10-20T15:58:45.208Z,13.90
2022-10-20T16:01:16.977Z,13.90
2022-10-20T16:03:45.112Z,13.90
2022-10-20T16:06:13.626Z,13.90
2022-10-20T16:08:44.544Z,13.90
2022-10-20T16:11:12.049Z,13.80
2022-10-20T16:13:39.793Z,13.80
2022-10-20T16:16:08.327Z,13.80
2022-10-20T16:18:35.318Z,13.70
2022-10-20T16:21:05.030Z,13.70
2022-10-20T16:23:32.508Z,13.70
2022-10-20T16:25:59.437Z,13.70
2022-10-20T16:28:26.587Z,13.60
2022-10-20T16:31:06.144Z,13.60
2022-10-20T16:33:33.763Z,13.60
2022-10-20T16:36:09.670Z,13.60
2022-10-20T16:38:40.117Z,13.60
2022-10-20T16:41:13.224Z,13.50
2022-10-20T16:43:42.385Z,13.50
2022-10-20T16:46:10.861Z,13.50
2022-10-20T16:48:41.379Z,13.50
2022-10-20T16:51:12.477Z,13.50
2022-10-20T16:53:39.478Z,13.50
2022-10-20T16:56:07.358Z,13.50
2022-10-20T16:58:36.013Z,13.40
2022-10-20T17:01:06.486Z,13.40
2022-10-20T17:03:33.938Z,13.40
2022-10-20T17:06:05.277Z,13.40
2022-10-20T17:08:33.415Z,13.30
2022-10-20T17:11:03.856Z,13.30
2022-10-20T17:13:32.124Z,13.30
2022-10-20T17:16:22.416Z,13.20
2022-10-20T17:18:53.868Z,13.20
2022-10-20T17:21:22.910Z,13.20
2022-10-20T17:23:49.933Z,13.20
2022-10-20T17:26:23.897Z,13.10
2022-10-20T17:29:02.179Z,13.10
2022-10-20T17:31:29.607Z,13.10
2022-10-20T17:33:58.720Z,13.00
2022-10-20T17:36:26.631Z,13.00
2022-10-20T17:38:59.985Z,13.00
2022-10-20T17:41:27.469Z,12.90
2022-10-20T17:43:54.617Z,12.90
2022-10-20T17:46:21.667Z,12.90
2022-10-20T17:48:48.683Z,12.90
2022-10-20T17:51:18.079Z,12.80
2022-10-20T17:53:48.096Z,12.80
2022-10-20T17:56:20.837Z,12.70
2022-10-20T17:58:50.665Z,12.70
2022-10-20T18:01:38.328Z,12.80
2022-10-20T18:04:15.268Z,12.70
2022-10-20T18:06:43.774Z,12.70
2022-10-20T18:09:13.415Z,12.70
2022-10-20T18:11:43.151Z,12.70
2022-10-20T18:14:10.308Z,12.70
2022-10-20T18:16:38.546Z,12.70
2022-10-20T18:19:06.253Z,12.70
2022-10-20T18:21:34.100Z,12.70
2022-10-20T18:24:03.523Z,12.60
2022-10-20T18:26:33.062Z,12.60
2022-10-20T18:29:01.928Z,12.50
2022-10-20T18:31:31.457Z,12.50
2022-10-20T18:34:04.287Z,12.40
2022-10-20T18:36:35.629Z,12.40
2022-10-20T18:39:05.144Z,12.40
2022-10-20T18:41:37.447Z,12.30
2022-10-20T18:44:07.180Z,12.30
2022-10-20T18:46:35.012Z,12.30
2022-10-20T18:49:04.084Z,12.30
2022-10-20T18:51:32.185Z,12.30
2022-10-20T18:54:00.543Z,12.30
2022-10-20T18:56:29.757Z,12.30
2022-10-20T18:59:02.551Z,12.30
2022-10-20T19:01:34.135Z,12.40
2022-10-20T19:04:01.716Z,12.50
2022-10-20T19:06:31.369Z,12.60
2022-10-20T19:09:01.190Z,12.70
2022-10-20T19:11:34.309Z,12.80
2022-10-20T19:14:01.607Z,12.90
2022-10-20T19:16:31.314Z,13.00
2022-10-20T19:19:00.206Z,13.10
2022-10-20T19:21:28.582Z,13.20
2022-10-20T19:24:11.657Z,13.30
2022-10-20T19:26:41.890Z,13.40
2022-10-20T19:29:12.256Z,13.50
2022-10-20T19:31:52.689Z,13.50
2022-10-20T19:34:33.683Z,13.50
2022-10-20T19:37:01.290Z,13.50
2022-10-20T19:39:35.022Z,13.60
2022-10-20T19:42:03.931Z,13.60
2022-10-20T19:44:31.209Z,13.60
2022-10-20T19:46:58.589Z,13.50
2022-10-20T19:49:26.670Z,13.50
2022-10-20T19:51:53.933Z,13.50
2022-10-20T19:54:20.985Z,13.40
2022-10-20T19:56:47.899Z,13.50
2022-10-20T19:59:14.872Z,13.50
2022-10-20T20:01:41.892Z,13.40
2022-10-20T20:04:10.878Z,13.30
2022-10-20T20:06:37.998Z,13.20
2022-10-20T20:09:08.507Z,13.20
2022-10-20T20:11:37.722Z,13.10
2022-10-20T20:14:10.893Z,13.00
2022-10-20T20:16:38.477Z,12.90
2022-10-20T20:19:05.668Z,12.80
2022-10-20T20:21:33.685Z,12.80
2022-10-20T20:24:02.498Z,12.70
2022-10-20T20:26:31.450Z,12.70
2022-10-20T20:28:59.121Z,12.70
2022-10-20T20:31:27.986Z,12.70
2022-10-20T20:33:56.993Z,12.70
2022-10-20T20:36:27.145Z,12.70
2022-10-20T20:38:59.051Z,12.70
2022-10-20T20:41:28.332Z,12.70
2022-10-20T20:43:55.239Z,12.70
2022-10-20T20:46:23.755Z,12.70
2022-10-20T20:48:51.206Z,12.70
2022-10-20T20:51:18.748Z,12.70
2022-10-20T20:53:45.640Z,12.70
2022-10-20T20:56:15.315Z,12.70
2022-10-20T20:58:45.268Z,12.70
2022-10-20T21:01:19.188Z,12.80
2022-10-20T21:03:46.317Z,12.80
2022-10-20T21:06:17.832Z,12.90
2022-10-20T21:08:47.655Z,13.00
2022-10-20T21:11:19.906Z,13.00
2022-10-20T21:13:48.137Z,13.10
2022-10-20T21:16:18.144Z,13.30
2022-10-20T21:18:48.220Z,13.40
2022-10-20T21:21:23.551Z,13.50
2022-10-20T21:23:51.070Z,13.50
2022-10-20T21:26:19.547Z,13.50
2022-10-20T21:28:47.068Z,13.50
2022-10-20T21:31:16.260Z,13.60
2022-10-20T21:33:43.194Z,13.80
2022-10-20T21:36:15.543Z,13.90
2022-10-20T21:38:43.437Z,13.90
2022-10-20T21:41:16.544Z,13.90
2022-10-20T21:43:49.010Z,13.90
2022-10-20T21:46:33.830Z,13.90
2022-10-20T21:49:06.135Z,13.80
2022-10-20T21:51:35.521Z,13.80
2022-10-20T21:54:06.160Z,13.90
2022-10-20T21:56:37.320Z,14.00
2022-10-20T21:59:05.745Z,14.00
2022-10-20T22:01:32.891Z,14.20
2022-10-20T22:04:00.079Z,14.20
2022-10-20T22:06:28.469Z,14.20
2022-10-20T22:09:00.017Z,14.20
2022-10-20T22:11:30.083Z,14.20
2022-10-20T22:13:57.894Z,14.20
2022-10-20T22:16:27.575Z,14.30
2022-10-20T22:19:16.074Z,14.30
2022-10-20T22:21:46.346Z,14.40
2022-10-20T22:24:13.750Z,14.40
2022-10-20T22:26:41.733Z,14.40
2022-10-20T22:29:12.239Z,14.40
2022-10-20T22:31:40.929Z,14.40
2022-10-20T22:34:08.894Z,14.50
2022-10-20T22:36:36.254Z,14.50
2022-10-20T22:39:04.185Z,14.40
2022-10-20T22:41:31.132Z,14.40
2022-10-20T22:43:58.568Z,14.40
2022-10-20T22:46:26.227Z,14.30
2022-10-20T22:48:53.342Z,14.30
2022-10-20T22:51:20.277Z,14.30
2022-10-20T22:53:47.340Z,14.20
2022-10-20T22:56:16.866Z,14.20
2022-10-20T22:58:44.374Z,14.30
2022-10-20T23:01:21.665Z,14.30
2022-10-20T23:03:48.682Z,14.30
2022-10-20T23:06:24.353Z,14.40
2022-10-20T23:08:54.087Z,14.40
2022-10-20T23:11:21.991Z,14.30
2022-10-20T23:13:51.050Z,14.30
2022-10-20T23:16:18.164Z,14.40
2022-10-20T23:18:45.255Z,14.30
2022-10-20T23:21:14.147Z,14.30
2022-10-20T23:23:45.069Z,14.30
2022-10-20T23:26:12.961Z,14.20
2022-10-20T23:28:40.151Z,14.20
2022-10-20T23:31:15.940Z,14.20
2022-10-20T23:33:44.860Z,14.20
2022-10-20T23:36:13.403Z,14.20
2022-10-20T23:38:40.943Z,14.50
2022-10-20T23:41:07.919Z,14.60
2022-10-20T23:46:03.381Z,14.70
2022-10-20T23:48:30.671Z,14.80
2022-10-20T23:50:58.133Z,14.80
2022-10-20T23:53:25.396Z,14.90
2022-10-20T23:55:52.870Z,15.00
2022-10-20T23:58:23.319Z,15.00
